Time;durP1;ratioP1;P1;durP2;ratioP2;P2;SDS_P1;SDS_P2;PMS_P1;PMS_P2;Temp;Humidity;BMP_temperature;BMP_pressure;BME280_temperature;BME280_humidity;BME280_pressure;Samples;Min_cycle;Max_cycle;Signal;HPM_P1;HPM_P2
2022/04/16 00:00:21;;;;;;;19.05;11.40;;;7.50;99.90;;;;;;4934293;29;20039;-82
2022/04/16 00:02:47;;;;;;;21.20;12.02;;;7.50;99.90;;;;;;4949874;28;20065;-82
2022/04/16 00:05:16;;;;;;;21.83;12.05;;;7.40;99.90;;;;;;4949954;28;20039;-82
2022/04/16 00:07:42;;;;;;;19.92;11.48;;;7.40;99.90;;;;;;4949555;28;20043;-82
2022/04/16 00:10:09;;;;;;;18.77;11.00;;;7.30;99.90;;;;;;4952688;28;20037;-82
2022/04/16 00:12:35;;;;;;;18.00;11.45;;;7.20;99.90;;;;;;4928439;28;20126;-81
2022/04/16 00:15:01;;;;;;;19.65;12.32;;;7.30;99.90;;;;;;4950955;28;20031;-82
2022/04/16 00:17:27;;;;;;;18.20;11.68;;;7.10;99.90;;;;;;4933969;29;20524;-82
2022/04/16 00:19:53;;;;;;;18.90;12.05;;;7.00;99.90;;;;;;4934429;29;20081;-82
2022/04/16 00:22:18;;;;;;;18.25;12.05;;;7.20;99.90;;;;;;4949786;28;20047;-82
2022/04/16 00:24:47;;;;;;;17.75;10.75;;;6.90;99.90;;;;;;4949240;28;20047;-82
2022/04/16 00:27:12;;;;;;;19.10;10.98;;;6.80;99.90;;;;;;4949179;28;20044;-82
2022/04/16 00:29:39;;;;;;;19.75;12.00;;;6.80;99.90;;;;;;4931955;28;20123;-81
2022/04/16 00:32:05;;;;;;;19.33;12.15;;;6.80;99.90;;;;;;4949695;28;20488;-82
2022/04/16 00:34:32;;;;;;;19.20;11.75;;;6.80;99.90;;;;;;4917921;29;20138;-82
2022/04/16 00:36:58;;;;;;;24.63;11.93;;;6.80;99.90;;;;;;4948112;28;20121;-82
2022/04/16 00:39:25;;;;;;;22.40;12.25;;;6.80;99.90;;;;;;4934355;29;20046;-82
2022/04/16 00:41:51;;;;;;;23.38;11.88;;;6.80;99.90;;;;;;4950417;29;20081;-82
2022/04/16 00:44:19;;;;;;;19.70;11.48;;;6.80;99.90;;;;;;4933095;29;20067;-81
2022/04/16 00:46:48;;;;;;;20.45;11.95;;;7.50;99.90;;;;;;4934059;29;20066;-82
2022/04/16 00:49:14;;;;;;;18.75;11.80;;;6.80;99.90;;;;;;4948812;28;20531;-82
2022/04/16 00:51:45;;;;;;;18.85;12.15;;;6.80;99.90;;;;;;4948985;29;20131;-82
2022/04/16 00:54:11;;;;;;;20.75;13.00;;;7.20;99.90;;;;;;4949108;29;20051;-82
2022/04/16 00:56:38;;;;;;;19.73;11.98;;;6.80;99.90;;;;;;4949950;28;20039;-82
2022/04/16 00:59:04;;;;;;;20.67;12.48;;;6.90;99.90;;;;;;4948428;29;20192;-82
2022/04/16 01:01:31;;;;;;;20.65;12.27;;;7.50;99.90;;;;;;4949840;29;20039;-82
2022/04/16 01:03:57;;;;;;;20.67;13.15;;;6.90;99.90;;;;;;4950983;28;20039;-82
2022/04/16 01:06:22;;;;;;;22.52;13.10;;;7.00;99.90;;;;;;4931711;28;20039;-82
2022/04/16 01:08:48;;;;;;;21.05;13.27;;;7.00;99.90;;;;;;4933644;29;20043;-81
2022/04/16 01:11:15;;;;;;;21.25;12.80;;;7.10;99.90;;;;;;4934652;29;20054;-82
2022/04/16 01:13:46;;;;;;;19.85;13.07;;;7.40;99.90;;;;;;4965788;28;20198;-83
2022/04/16 01:16:12;;;;;;;21.60;13.35;;;7.20;99.90;;;;;;4951221;28;20043;-82
2022/04/16 01:18:46;;;;;;;22.58;14.43;;;7.30;99.90;;;;;;4932313;29;20043;-82
2022/04/16 01:21:13;;;;;;;22.27;14.18;;;7.50;99.90;;;;;;4947783;28;20492;-82
2022/04/16 01:23:39;;;;;;;23.48;13.90;;;7.20;99.90;;;;;;4949746;29;20069;-82
2022/04/16 01:26:06;;;;;;;21.67;14.82;;;7.20;99.90;;;;;;4949506;28;20077;-82
2022/04/16 01:28:32;;;;;;;22.52;14.88;;;7.20;99.90;;;;;;4934640;28;20050;-82
2022/04/16 01:30:58;;;;;;;21.02;14.35;;;8.40;99.90;;;;;;4918649;29;20118;-82
2022/04/16 01:33:23;;;;;;;22.98;14.73;;;7.50;99.90;;;;;;4949956;29;20042;-82
2022/04/16 01:35:56;;;;;;;23.70;14.82;;;7.20;99.90;;;;;;4950185;29;20443;-82
2022/04/16 01:38:25;;;;;;;22.20;14.10;;;7.30;99.90;;;;;;4936893;29;20039;-81
2022/04/16 01:40:56;;;;;;;23.75;15.13;;;8.10;99.90;;;;;;4952101;28;20047;-82
2022/04/16 01:43:22;;;;;;;24.33;15.07;;;7.10;99.90;;;;;;4921651;29;20047;-81
2022/04/16 01:45:49;;;;;;;23.08;16.00;;;7.10;99.90;;;;;;4936757;29;20075;-82
2022/04/16 01:48:19;;;;;;;24.42;15.15;;;7.00;99.90;;;;;;4936785;29;20043;-82
2022/04/16 01:50:51;;;;;;;24.27;15.63;;;7.00;99.90;;;;;;4952318;28;20043;-81
2022/04/16 01:53:17;;;;;;;24.20;15.07;;;7.00;99.90;;;;;;4952422;28;20066;-82
2022/04/16 01:55:43;;;;;;;24.00;15.23;;;7.20;99.90;;;;;;4936296;29;20102;-82
2022/04/16 01:58:09;;;;;;;24.55;14.95;;;7.00;99.90;;;;;;4937647;29;20039;-82
2022/04/16 02:00:35;;;;;;;27.35;17.77;;;7.20;99.90;;;;;;4936657;28;20106;-82
2022/04/16 02:03:01;;;;;;;28.27;16.63;;;6.90;99.90;;;;;;4936574;29;20090;-83
2022/04/16 02:05:27;;;;;;;28.17;18.13;;;6.90;99.90;;;;;;4935951;29;20043;-82
2022/04/16 02:07:54;;;;;;;28.15;18.35;;;7.00;99.90;;;;;;4936307;29;20043;-82
2022/04/16 02:10:19;;;;;;;30.48;18.92;;;7.10;99.90;;;;;;4936410;29;20039;-82
2022/04/16 02:12:46;;;;;;;29.80;18.83;;;7.10;99.90;;;;;;4936660;29;20560;-82
2022/04/16 02:15:12;;;;;;;28.25;18.40;;;7.20;99.90;;;;;;4952363;29;20051;-82
2022/04/16 02:17:37;;;;;;;29.58;18.63;;;7.30;99.90;;;;;;4935863;29;20094;-82
2022/04/16 02:20:08;;;;;;;25.83;15.98;;;7.40;99.90;;;;;;4920072;29;20039;-82
2022/04/16 02:22:45;;;;;;;24.70;16.65;;;7.50;99.90;;;;;;4952136;29;20050;-82
2022/04/16 02:25:13;;;;;;;26.98;17.45;;;7.50;99.90;;;;;;4952152;29;20043;-82
2022/04/16 02:27:39;;;;;;;26.05;17.00;;;7.60;99.90;;;;;;4951999;28;20915;-81
2022/04/16 02:30:13;;;;;;;25.70;17.30;;;7.70;99.90;;;;;;4951803;28;20122;-82
2022/04/16 02:32:44;;;;;;;25.17;16.58;;;7.70;99.90;;;;;;4936713;29;20043;-82
2022/04/16 02:35:13;;;;;;;24.85;16.38;;;7.70;99.90;;;;;;4951785;28;20051;-81
2022/04/16 02:37:39;;;;;;;25.05;17.70;;;7.80;99.90;;;;;;4935852;29;20051;-81
2022/04/16 02:40:05;;;;;;;25.92;18.20;;;7.80;99.90;;;;;;4949132;29;20035;-82
2022/04/16 02:42:39;;;;;;;29.02;18.55;;;7.80;99.90;;;;;;4911387;29;20055;-82
2022/04/16 02:47:53;;;;;;;26.05;17.58;;;7.90;99.90;;;;;;4938444;29;20405;-82
2022/04/16 02:50:20;;;;;;;26.25;18.63;;;7.90;99.90;;;;;;4934242;29;20035;-82
2022/04/16 02:52:46;;;;;;;25.17;17.63;;;7.90;99.90;;;;;;4952326;28;20059;-82
2022/04/16 02:55:16;;;;;;;30.63;19.02;;;8.00;99.90;;;;;;4920649;29;20047;-82
2022/04/16 02:57:43;;;;;;;26.92;19.02;;;7.90;99.90;;;;;;4937045;29;20122;-82
2022/04/16 03:00:10;;;;;;;27.75;19.95;;;8.30;99.90;;;;;;4937615;29;20170;-81
2022/04/16 03:02:37;;;;;;;29.30;19.83;;;8.00;99.90;;;;;;4950926;28;20118;-82
2022/04/16 03:05:06;;;;;;;28.77;19.23;;;8.00;99.90;;;;;;4951179;28;20074;-82
2022/04/16 03:07:36;;;;;;;29.40;20.45;;;8.00;99.90;;;;;;4949783;28;20066;-82
2022/04/16 03:10:03;;;;;;;31.25;21.23;;;8.40;99.90;;;;;;4951202;28;20039;-82
2022/04/16 03:12:39;;;;;;;30.60;21.52;;;8.00;99.90;;;;;;4935142;29;20046;-82
2022/04/16 03:17:50;;;;;;;33.45;23.42;;;8.10;99.90;;;;;;4937428;29;20127;-82
2022/04/16 03:20:15;;;;;;;31.98;21.60;;;8.00;99.90;;;;;;4919396;29;20070;-82
2022/04/16 03:22:43;;;;;;;32.13;22.15;;;8.00;99.90;;;;;;4936506;29;20047;-82
2022/04/16 03:25:09;;;;;;;32.65;22.45;;;8.00;99.90;;;;;;4968272;28;20137;-82
2022/04/16 03:27:37;;;;;;;32.45;21.80;;;8.00;99.90;;;;;;4950831;28;20431;-82
2022/04/16 03:30:07;;;;;;;31.05;20.98;;;8.20;99.90;;;;;;4936004;28;20040;-82
2022/04/16 03:32:37;;;;;;;31.50;20.98;;;7.90;99.90;;;;;;4919300;28;20075;-82
2022/04/16 03:35:05;;;;;;;30.35;21.60;;;7.90;99.90;;;;;;4952135;28;20122;-82
2022/04/16 03:37:35;;;;;;;31.58;21.40;;;7.90;99.90;;;;;;4933405;29;20043;-82
2022/04/16 03:40:00;;;;;;;33.80;22.95;;;7.90;99.90;;;;;;4935852;29;20166;-82
2022/04/16 03:42:26;;;;;;;33.83;22.58;;;7.90;99.90;;;;;;4934658;29;20126;-82
2022/04/16 03:44:52;;;;;;;33.40;22.35;;;7.70;99.90;;;;;;4934643;29;20050;-82
2022/04/16 03:47:18;;;;;;;35.35;22.33;;;7.80;99.90;;;;;;4934595;29;20197;-82
2022/04/16 03:49:43;;;;;;;31.13;21.83;;;8.50;99.90;;;;;;4934570;29;20032;-82
2022/04/16 03:52:09;;;;;;;35.63;23.70;;;7.80;99.90;;;;;;4935369;29;20039;-82
2022/04/16 04:00:05;;;;;;;37.25;24.17;;;7.80;99.90;;;;;;4938110;28;20511;-82
2022/04/16 04:02:33;;;;;;;35.30;24.40;;;7.70;99.90;;;;;;4949415;28;20520;-82
2022/04/16 04:04:59;;;;;;;36.03;24.98;;;7.70;99.90;;;;;;4949385;29;20043;-82
2022/04/16 04:07:25;;;;;;;36.13;24.40;;;7.70;99.90;;;;;;4917607;29;20101;-82
2022/04/16 04:09:52;;;;;;;35.83;24.65;;;7.70;99.90;;;;;;4949530;29;20408;-82
2022/04/16 04:12:17;;;;;;;36.20;24.95;;;7.70;99.90;;;;;;4934423;29;20114;-81
2022/04/16 04:14:45;;;;;;;35.47;24.70;;;7.70;99.90;;;;;;4933822;29;20718;-82
2022/04/16 04:17:11;;;;;;;36.10;25.02;;;7.70;99.90;;;;;;4965550;28;20475;-82
2022/04/16 04:19:40;;;;;;;35.42;24.58;;;8.20;99.90;;;;;;4949112;29;20585;-81
2022/04/16 04:22:11;;;;;;;35.72;24.25;;;7.70;99.90;;;;;;4947075;29;20050;-82
2022/04/16 04:24:38;;;;;;;37.03;24.83;;;7.70;99.90;;;;;;4951470;28;20179;-82
2022/04/16 04:27:05;;;;;;;34.53;23.75;;;7.60;99.90;;;;;;4949592;29;20045;-82
2022/04/16 04:29:30;;;;;;;34.13;23.10;;;7.60;99.90;;;;;;4949447;28;20039;-81
2022/04/16 04:31:56;;;;;;;33.28;22.25;;;7.60;99.90;;;;;;4949274;28;20397;-82
2022/04/16 04:34:23;;;;;;;33.10;22.77;;;7.60;99.90;;;;;;4934433;29;20046;-82
2022/04/16 04:36:49;;;;;;;31.13;21.85;;;7.60;99.90;;;;;;4949461;28;20439;-82
2022/04/16 04:39:15;;;;;;;31.13;21.38;;;7.60;99.90;;;;;;4948310;28;20051;-82
2022/04/16 04:41:43;;;;;;;30.48;20.40;;;7.60;99.90;;;;;;4933990;29;20039;-82
2022/04/16 04:44:18;;;;;;;31.70;21.05;;;7.60;99.90;;;;;;4933456;29;20035;-82
2022/04/16 04:46:43;;;;;;;30.48;21.35;;;7.70;99.90;;;;;;4947924;28;20043;-82
2022/04/16 04:49:11;;;;;;;29.80;19.88;;;7.60;99.90;;;;;;4946872;29;20032;-82
2022/04/16 04:51:40;;;;;;;29.55;19.85;;;7.60;99.90;;;;;;4934798;28;20035;-82
2022/04/16 04:54:07;;;;;;;30.63;19.25;;;7.60;99.90;;;;;;4949518;29;20538;-82
2022/04/16 04:56:34;;;;;;;28.88;18.50;;;7.60;99.90;;;;;;4950747;28;20122;-82
2022/04/16 04:58:59;;;;;;;29.40;18.75;;;7.60;99.90;;;;;;4946528;29;20047;-81
2022/04/16 05:01:25;;;;;;;26.38;17.50;;;7.60;99.90;;;;;;4933213;29;20050;-82
2022/04/16 05:03:51;;;;;;;23.75;15.85;;;7.60;99.90;;;;;;4948787;28;20039;-83
2022/04/16 05:06:17;;;;;;;24.75;16.52;;;7.60;99.90;;;;;;4964748;28;20065;-82
2022/04/16 05:08:43;;;;;;;24.75;15.73;;;7.70;99.90;;;;;;4947958;28;20047;-82
2022/04/16 05:11:10;;;;;;;23.00;15.13;;;8.30;99.90;;;;;;4933048;29;20035;-82
2022/04/16 05:13:36;;;;;;;24.92;15.35;;;8.50;99.90;;;;;;4948092;28;20036;-82
2022/04/16 05:16:01;;;;;;;23.58;15.38;;;7.70;99.90;;;;;;4916268;28;20054;-82
2022/04/16 05:18:27;;;;;;;25.85;16.10;;;7.70;99.90;;;;;;4948393;28;20039;-82
2022/04/16 05:20:53;;;;;;;24.90;15.55;;;7.70;99.90;;;;;;4932641;29;20046;-82
2022/04/16 05:23:19;;;;;;;24.58;16.55;;;7.80;99.90;;;;;;4934250;29;20057;-82
2022/04/16 05:25:44;;;;;;;27.50;17.63;;;7.80;99.90;;;;;;4933968;29;20047;-82
2022/04/16 05:28:10;;;;;;;27.20;18.27;;;7.80;99.90;;;;;;4932680;28;20043;-82
2022/04/16 05:30:44;;;;;;;30.17;19.92;;;7.80;99.90;;;;;;4932803;29;20180;-82
2022/04/16 05:35:58;;;;;;;27.95;18.23;;;7.80;99.90;;;;;;4948268;28;20098;-82
2022/04/16 05:38:24;;;;;;;27.77;18.05;;;7.80;99.90;;;;;;4948743;28;20051;-82
2022/04/16 05:40:50;;;;;;;30.92;19.15;;;;;;;;;;4948526;28;20055;-82
2022/04/16 05:43:15;;;;;;;27.55;17.77;;;7.80;99.90;;;;;;4948136;28;20041;-82
2022/04/16 05:45:41;;;;;;;28.45;18.67;;;7.80;99.90;;;;;;4931318;28;20039;-81
2022/04/16 05:48:07;;;;;;;27.63;17.08;;;7.80;99.90;;;;;;4932345;29;20050;-82
2022/04/16 05:50:34;;;;;;;29.17;17.50;;;7.80;99.90;;;;;;4932750;29;20118;-81
2022/04/16 05:53:00;;;;;;;27.42;16.95;;;8.00;99.90;;;;;;4935834;29;20051;-82
2022/04/16 05:55:26;;;;;;;28.20;16.70;;;8.70;99.90;;;;;;4949415;29;20562;-82
2022/04/16 05:57:51;;;;;;;29.95;17.52;;;7.80;99.90;;;;;;4916906;29;20432;-82
2022/04/16 06:00:17;;;;;;;26.25;16.90;;;7.80;99.90;;;;;;4933176;28;20043;-82
2022/04/16 06:02:43;;;;;;;27.17;16.48;;;8.10;99.90;;;;;;4917236;29;20045;-82
2022/04/16 06:05:09;;;;;;;27.52;17.08;;;8.60;99.90;;;;;;4931825;29;20036;-82
2022/04/16 06:07:35;;;;;;;26.40;16.83;;;7.90;99.90;;;;;;4948322;28;20412;-82
2022/04/16 06:10:01;;;;;;;22.90;15.48;;;8.00;99.90;;;;;;4932454;29;20035;-82
2022/04/16 06:12:27;;;;;;;24.58;15.68;;;8.30;99.90;;;;;;4931903;29;20073;-82
2022/04/16 06:14:53;;;;;;;25.02;14.00;;;8.50;99.90;;;;;;4933438;29;20039;-82
2022/04/16 06:17:19;;;;;;;25.35;15.05;;;8.60;99.90;;;;;;4948179;28;20118;-82
2022/04/16 06:19:45;;;;;;;24.63;15.35;;;8.40;99.90;;;;;;4932146;29;20043;-82
2022/04/16 06:22:11;;;;;;;26.17;16.02;;;9.10;99.90;;;;;;4932567;29;20061;-82
2022/04/16 06:24:41;;;;;;;25.67;15.48;;;8.50;99.90;;;;;;4919621;29;20043;-82
2022/04/16 06:27:07;;;;;;;24.67;15.02;;;8.50;99.90;;;;;;4951987;29;20514;-83
2022/04/16 06:29:32;;;;;;;25.38;15.50;;;8.90;99.90;;;;;;4935521;29;20043;-82
2022/04/16 06:31:58;;;;;;;25.13;15.60;;;8.60;99.90;;;;;;4935815;29;20567;-82
2022/04/16 06:34:24;;;;;;;25.05;15.25;;;8.60;99.90;;;;;;4934885;28;20452;-82
2022/04/16 06:36:50;;;;;;;21.48;14.43;;;8.60;99.90;;;;;;4951664;28;20093;-82
2022/04/16 06:39:16;;;;;;;24.23;14.98;;;8.70;99.90;;;;;;4951326;29;20031;-82
2022/04/16 06:41:42;;;;;;;23.73;13.98;;;8.70;99.90;;;;;;4937132;28;20090;-81
2022/04/16 06:44:07;;;;;;;22.35;14.35;;;8.70;99.90;;;;;;4937427;29;20050;-81
2022/04/16 06:46:33;;;;;;;23.83;13.70;;;8.80;99.90;;;;;;4921346;28;20054;-81
2022/04/16 06:48:59;;;;;;;22.48;14.27;;;8.80;99.90;;;;;;4919755;29;20085;-81
2022/04/16 06:51:24;;;;;;;22.63;14.93;;;9.90;99.90;;;;;;4904253;28;20101;-82
2022/04/16 06:53:51;;;;;;;22.85;13.75;;;9.40;99.90;;;;;;4947357;28;20062;-82
2022/04/16 06:56:16;;;;;;;25.25;14.77;;;9.70;99.90;;;;;;4934907;28;20102;-81
2022/04/16 06:58:42;;;;;;;25.35;15.23;;;9.10;99.90;;;;;;4937974;28;20047;-81
2022/04/16 07:01:08;;;;;;;19.13;11.73;;;9.10;99.90;;;;;;4932980;28;20067;-81
2022/04/16 07:03:34;;;;;;;20.42;11.80;;;9.20;99.90;;;;;;4934282;29;20046;-81
2022/04/16 07:06:00;;;;;;;20.98;12.77;;;9.60;99.90;;;;;;4918433;28;20129;-82
2022/04/16 07:08:26;;;;;;;19.20;11.13;;;9.40;99.90;;;;;;4934569;28;20114;-82
2022/04/16 07:10:52;;;;;;;18.10;10.77;;;9.40;99.90;;;;;;4917386;29;20126;-81
2022/04/16 07:13:18;;;;;;;18.38;10.32;;;9.40;99.90;;;;;;4949755;28;20073;-82
2022/04/16 07:15:44;;;;;;;19.13;10.77;;;9.50;99.90;;;;;;4902667;29;20062;-81
2022/04/16 07:18:10;;;;;;;18.48;10.50;;;9.60;99.90;;;;;;4935442;29;20045;-81
2022/04/16 07:20:36;;;;;;;19.15;9.98;;;9.70;99.90;;;;;;4936183;29;20149;-81
2022/04/16 07:23:03;;;;;;;18.40;9.93;;;9.90;99.90;;;;;;4949147;28;20447;-80
2022/04/16 07:25:29;;;;;;;17.75;9.90;;;10.60;99.90;;;;;;4919179;29;20043;-81
2022/04/16 07:27:54;;;;;;;17.73;9.95;;;10.00;99.90;;;;;;4949602;28;20134;-81
2022/04/16 07:30:20;;;;;;;16.67;9.52;;;10.00;99.90;;;;;;4918807;29;20042;-81
2022/04/16 07:32:46;;;;;;;17.90;9.65;;;10.10;99.90;;;;;;4948173;28;20039;-81
2022/04/16 07:35:11;;;;;;;17.05;8.95;;;10.10;99.90;;;;;;4933798;29;20055;-81
2022/04/16 07:37:37;;;;;;;17.75;9.82;;;10.30;99.90;;;;;;4935022;29;20035;-81
2022/04/16 07:40:03;;;;;;;15.82;8.50;;;10.30;99.90;;;;;;4934881;29;20043;-81
2022/04/16 07:42:30;;;;;;;15.23;8.43;;;10.30;99.90;;;;;;4934560;29;20126;-81
2022/04/16 07:44:55;;;;;;;14.20;7.88;;;10.30;99.90;;;;;;4950071;28;20400;-81
2022/04/16 07:47:21;;;;;;;14.90;8.15;;;10.40;99.90;;;;;;4950960;28;20036;-81
2022/04/16 07:49:47;;;;;;;15.20;8.65;;;10.50;99.90;;;;;;4935675;29;20597;-81
2022/04/16 07:52:12;;;;;;;14.35;7.80;;;10.50;99.90;;;;;;4933553;28;20073;-81
2022/04/16 07:54:38;;;;;;;12.13;5.88;;;10.60;99.90;;;;;;4932499;28;20427;-81
2022/04/16 07:57:07;;;;;;;10.77;5.43;;;10.60;99.90;;;;;;4952308;28;20039;-81
2022/04/16 07:59:33;;;;;;;16.00;7.50;;;10.70;99.90;;;;;;4950655;28;20255;-81
2022/04/16 08:01:59;;;;;;;14.43;7.10;;;10.60;99.90;;;;;;4934065;29;20050;-82
2022/04/16 08:04:25;;;;;;;14.80;7.55;;;10.60;99.90;;;;;;4952011;28;20054;-81
2022/04/16 08:06:51;;;;;;;13.00;6.72;;;10.70;99.90;;;;;;4934517;29;20039;-81
2022/04/16 08:09:18;;;;;;;14.75;5.85;;;10.60;99.90;;;;;;4949124;28;20035;-81
2022/04/16 08:11:46;;;;;;;13.63;6.18;;;10.70;99.90;;;;;;4951473;28;20510;-81
2022/04/16 08:14:13;;;;;;;12.88;5.90;;;10.80;99.90;;;;;;4950017;28;20396;-81
2022/04/16 08:16:39;;;;;;;12.07;5.97;;;10.80;99.90;;;;;;4929309;29;20110;-81
2022/04/16 08:19:04;;;;;;;11.60;5.20;;;10.90;99.90;;;;;;4950848;28;20492;-81
2022/04/16 08:21:32;;;;;;;13.13;5.20;;;10.90;99.90;;;;;;4918278;29;20138;-81
2022/04/16 08:24:12;;;;;;;11.35;4.80;;;11.00;99.90;;;;;;4933823;29;20587;-81
2022/04/16 08:26:39;;;;;;;10.43;4.50;;;11.10;99.90;;;;;;4949018;28;20055;-81
2022/04/16 08:29:04;;;;;;;10.48;4.40;;;11.10;99.90;;;;;;4932582;29;20495;-81
2022/04/16 08:31:30;;;;;;;10.13;4.15;;;11.20;99.90;;;;;;4926402;29;20052;-81
2022/04/16 08:33:56;;;;;;;10.75;4.30;;;11.20;99.90;;;;;;4900674;29;20035;-81
2022/04/16 08:36:22;;;;;;;9.07;3.88;;;11.30;99.90;;;;;;4918679;29;20041;-81
2022/04/16 08:38:47;;;;;;;8.85;3.70;;;11.20;99.90;;;;;;4931336;29;20046;-81
2022/04/16 08:41:13;;;;;;;8.52;3.22;;;11.40;99.90;;;;;;4949894;28;20043;-81
2022/04/16 08:43:44;;;;;;;9.05;3.20;;;11.40;99.90;;;;;;4933488;29;20042;-81
2022/04/16 08:46:10;;;;;;;7.72;2.90;;;11.40;99.90;;;;;;4933810;28;20261;-81
2022/04/16 08:48:36;;;;;;;9.15;3.42;;;11.60;99.90;;;;;;4931919;29;20613;-81
2022/04/16 08:51:03;;;;;;;8.20;2.58;;;11.70;99.90;;;;;;4949893;28;20036;-81
2022/04/16 08:53:29;;;;;;;8.02;2.60;;;11.80;99.90;;;;;;4918058;29;20055;-81
2022/04/16 08:55:55;;;;;;;7.18;2.55;;;11.80;99.90;;;;;;4932894;29;20126;-81
2022/04/16 08:58:20;;;;;;;6.03;2.10;;;12.00;99.90;;;;;;4933765;29;20129;-81
2022/04/16 09:00:47;;;;;;;6.10;2.20;;;11.90;99.90;;;;;;4917841;28;20050;-81
2022/04/16 09:03:13;;;;;;;6.07;1.90;;;11.90;99.90;;;;;;4945898;29;20035;-81
2022/04/16 09:05:39;;;;;;;5.55;1.73;;;11.90;99.90;;;;;;4931633;28;20511;-81
2022/04/16 09:08:05;;;;;;;5.78;2.08;;;11.90;99.90;;;;;;4934096;28;20040;-81
2022/04/16 09:10:33;;;;;;;4.65;1.90;;;12.00;99.90;;;;;;4931935;28;20047;-80
2022/04/16 09:13:01;;;;;;;3.38;1.50;;;12.00;99.90;;;;;;4949968;28;20039;-81
2022/04/16 09:15:28;;;;;;;3.38;1.42;;;12.20;99.90;;;;;;4947743;28;20042;-81
2022/04/16 09:18:01;;;;;;;4.40;1.60;;;12.30;99.90;;;;;;4932183;28;20051;-81
2022/04/16 09:20:31;;;;;;;3.95;1.50;;;12.20;99.90;;;;;;4928535;28;20055;-81
2022/04/16 09:22:58;;;;;;;4.00;1.50;;;12.30;99.90;;;;;;4948719;28;20066;-81
2022/04/16 09:25:23;;;;;;;4.05;1.60;;;12.30;99.90;;;;;;4948428;28;20126;-81
2022/04/16 09:27:50;;;;;;;3.72;1.40;;;12.40;99.90;;;;;;4933552;28;20512;-81
2022/04/16 09:30:23;;;;;;;4.60;1.65;;;12.50;99.90;;;;;;4961856;28;20038;-81
2022/04/16 09:32:49;;;;;;;3.50;1.50;;;12.60;99.90;;;;;;4949217;28;20073;-81
2022/04/16 09:35:29;;;;;;;2.70;1.30;;;12.80;99.90;;;;;;4933061;28;20551;-81
2022/04/16 09:38:00;;;;;;;4.63;1.63;;;12.80;99.90;;;;;;4931586;29;20614;-81
2022/04/16 09:40:27;;;;;;;3.70;1.48;;;12.70;99.90;;;;;;4931106;29;20405;-81
2022/04/16 09:43:01;;;;;;;4.53;1.40;;;12.80;99.90;;;;;;4949312;28;20043;-81
2022/04/16 09:45:28;;;;;;;4.55;1.60;;;12.80;99.90;;;;;;4947307;28;20496;-82
2022/04/16 09:47:54;;;;;;;3.42;1.60;;;12.90;99.90;;;;;;4932375;29;20039;-82
2022/04/16 09:50:22;;;;;;;3.78;1.42;;;13.00;99.90;;;;;;4930969;29;20043;-82
2022/04/16 09:53:04;;;;;;;2.78;1.20;;;12.90;99.90;;;;;;4931829;29;20035;-81
2022/04/16 09:55:30;;;;;;;4.03;1.50;;;13.00;99.90;;;;;;4949681;28;20047;-81
2022/04/16 09:58:06;;;;;;;3.70;1.42;;;13.00;99.90;;;;;;4932784;28;20047;-82
2022/04/16 10:00:35;;;;;;;3.53;1.60;;;13.00;98.80;;;;;;4938329;28;20050;-82
2022/04/16 10:03:04;;;;;;;5.35;1.67;;;13.00;99.90;;;;;;4958715;28;20098;-82
2022/04/16 10:05:29;;;;;;;4.18;1.40;;;13.00;99.60;;;;;;4951590;28;20045;-82
2022/04/16 10:07:57;;;;;;;2.72;1.20;;;12.90;96.10;;;;;;4936306;29;20043;-82
2022/04/16 10:10:30;;;;;;;4.20;1.38;;;12.90;94.50;;;;;;4920874;28;20111;-82
2022/04/16 10:13:04;;;;;;;6.40;1.40;;;12.90;90.50;;;;;;4951832;28;20039;-82
2022/04/16 10:15:47;;;;;;;4.15;1.50;;;13.00;91.70;;;;;;4951343;28;20067;-82
2022/04/16 10:18:13;;;;;;;2.92;1.40;;;13.20;91.50;;;;;;4932926;29;20074;-82
2022/04/16 10:21:00;;;;;;;3.90;1.30;;;13.30;93.80;;;;;;4953936;28;20046;-82
2022/04/16 10:23:36;;;;;;;2.92;1.38;;;13.30;81.70;;;;;;4949801;28;20035;-82
2022/04/16 10:26:13;;;;;;;3.72;1.27;;;13.30;88.60;;;;;;4935631;29;20043;-82
2022/04/16 10:28:51;;;;;;;2.30;1.23;;;13.30;77.40;;;;;;4947041;28;20047;-82
2022/04/16 10:31:32;;;;;;;2.03;1.20;;;13.30;78.60;;;;;;4950633;28;20392;-82
2022/04/16 10:34:04;;;;;;;3.33;1.27;;;13.50;74.50;;;;;;4951164;28;20536;-84
2022/04/16 10:36:32;;;;;;;1.42;1.00;;;13.50;79.60;;;;;;4935854;29;20058;-82
2022/04/16 10:38:58;;;;;;;2.50;1.25;;;13.50;81.40;;;;;;4935176;28;20126;-82
2022/04/16 10:41:26;;;;;;;2.72;1.20;;;13.60;79.80;;;;;;4935496;29;20068;-82
2022/04/16 10:43:59;;;;;;;4.15;1.35;;;13.70;77.00;;;;;;4932945;28;20079;-82
2022/04/16 10:46:48;;;;;;;4.20;1.20;;;13.70;73.50;;;;;;4934023;29;20551;-81
2022/04/16 10:49:19;;;;;;;3.65;1.30;;;13.80;74.30;;;;;;4951140;29;20039;-82
2022/04/16 10:51:45;;;;;;;3.95;1.20;;;13.80;74.80;;;;;;4935115;28;20035;-82
2022/04/16 10:54:13;;;;;;;5.22;1.67;;;13.80;73.20;;;;;;4949599;28;20062;-82
2022/04/16 10:56:43;;;;;;;3.67;1.40;;;13.90;72.90;;;;;;4951828;28;20058;-82
2022/04/16 10:59:10;;;;;;;6.18;1.67;;;14.00;72.70;;;;;;4950495;28;20427;-82
2022/04/16 11:01:37;;;;;;;5.30;1.40;;;14.10;72.90;;;;;;4920575;29;20047;-82
2022/04/16 11:04:14;;;;;;;3.50;1.38;;;14.30;72.40;;;;;;4951112;28;20042;-82
2022/04/16 11:06:44;;;;;;;4.75;1.42;;;14.30;71.00;;;;;;4938214;28;20467;-82
2022/04/16 11:09:20;;;;;;;4.93;1.33;;;14.30;71.60;;;;;;4950196;28;20047;-82
2022/04/16 11:11:52;;;;;;;4.35;1.30;;;14.30;72.30;;;;;;4949148;28;20039;-82
2022/04/16 11:14:18;;;;;;;3.50;1.40;;;14.40;71.40;;;;;;4933180;28;20051;-82
2022/04/16 11:16:46;;;;;;;3.03;1.30;;;14.30;72.00;;;;;;4935020;29;20447;-82
2022/04/16 11:19:16;;;;;;;4.32;1.40;;;14.30;71.20;;;;;;4934740;28;20411;-82
2022/04/16 11:21:43;;;;;;;4.05;1.58;;;14.30;71.20;;;;;;4937080;28;20149;-82
2022/04/16 11:24:09;;;;;;;2.22;1.23;;;14.40;71.40;;;;;;4952481;28;20492;-82
2022/04/16 11:34:55;;;;;;;2.78;1.40;;;14.20;69.20;;;;;;4936588;28;20043;-82
2022/04/16 11:37:21;;;;;;;5.22;1.45;;;14.30;68.10;;;;;;4934762;28;20488;-82
2022/04/16 11:39:57;;;;;;;3.65;1.50;;;14.40;69.20;;;;;;4945176;28;20039;-82
2022/04/16 11:42:24;;;;;;;4.00;1.42;;;14.50;69.00;;;;;;4948750;29;20043;-82
2022/04/16 11:44:52;;;;;;;4.60;1.60;;;14.70;67.70;;;;;;4935676;29;20050;-82
2022/04/16 11:47:22;;;;;;;4.78;1.60;;;14.80;67.30;;;;;;4949300;28;20187;-82
2022/04/16 11:49:51;;;;;;;5.05;1.55;;;14.80;67.40;;;;;;4949027;28;20047;-82
2022/04/16 11:52:23;;;;;;;3.47;1.30;;;14.80;66.50;;;;;;4949408;28;20036;-82
2022/04/16 11:55:13;;;;;;;4.47;1.55;;;14.90;66.50;;;;;;4948854;29;20138;-82
2022/04/16 11:57:47;;;;;;;4.10;1.42;;;14.80;64.00;;;;;;4950688;28;20114;-82
2022/04/16 12:00:14;;;;;;;5.07;1.60;;;14.70;63.70;;;;;;4963715;28;20058;-82
2022/04/16 12:02:47;;;;;;;4.40;1.50;;;14.80;63.70;;;;;;4934663;29;20137;-82
2022/04/16 12:05:23;;;;;;;6.55;1.55;;;14.90;63.90;;;;;;4934847;29;20047;-82
2022/04/16 12:07:49;;;;;;;3.20;1.40;;;14.90;63.40;;;;;;4934580;28;20039;-82
2022/04/16 12:10:17;;;;;;;4.00;1.60;;;14.90;64.30;;;;;;4952217;28;20173;-82
2022/04/16 12:12:49;;;;;;;4.32;1.60;;;14.90;63.70;;;;;;4950848;29;20074;-82
2022/04/16 12:15:26;;;;;;;4.85;1.60;;;14.90;63.10;;;;;;4933266;29;21155;-82
2022/04/16 12:17:54;;;;;;;4.00;1.38;;;15.00;63.20;;;;;;4949653;29;20035;-82
2022/04/16 12:20:20;;;;;;;5.35;1.60;;;15.10;62.50;;;;;;4950913;28;20066;-82
2022/04/16 12:23:00;;;;;;;3.72;1.50;;;15.10;62.70;;;;;;4918197;28;20592;-82
2022/04/16 12:25:26;;;;;;;4.63;1.60;;;15.10;63.00;;;;;;4949676;28;20110;-82
2022/04/16 12:27:57;;;;;;;4.40;1.60;;;15.20;63.10;;;;;;4951665;28;20039;-82
2022/04/16 12:30:30;;;;;;;4.20;1.65;;;15.20;62.70;;;;;;4948518;28;20058;-83
2022/04/16 12:33:07;;;;;;;4.70;1.58;;;15.30;62.10;;;;;;4931132;28;20039;-82
2022/04/16 12:35:35;;;;;;;3.78;1.48;;;15.30;61.30;;;;;;4935477;28;20035;-83
2022/04/16 12:38:03;;;;;;;4.50;1.50;;;15.30;60.80;;;;;;4959612;28;20043;-82
2022/04/16 12:40:30;;;;;;;3.05;1.30;;;15.30;60.80;;;;;;4947296;29;20047;-82
2022/04/16 12:42:57;;;;;;;3.03;1.30;;;15.20;60.40;;;;;;4935250;29;20043;-83
2022/04/16 12:45:23;;;;;;;3.80;1.38;;;15.30;59.30;;;;;;4946427;28;20074;-83
2022/04/16 12:47:50;;;;;;;3.13;1.40;;;15.40;58.80;;;;;;4949294;28;20046;-83
2022/04/16 12:50:15;;;;;;;5.18;1.40;;;15.40;58.20;;;;;;4946636;28;20264;-83
2022/04/16 12:52:42;;;;;;;4.43;1.38;;;15.40;57.90;;;;;;4947777;29;20042;-83
2022/04/16 12:55:09;;;;;;;3.55;1.17;;;15.50;57.80;;;;;;4945851;28;20051;-82
2022/04/16 12:57:35;;;;;;;2.88;1.42;;;15.50;56.70;;;;;;4933538;28;20066;-82
2022/04/16 13:00:02;;;;;;;4.68;1.50;;;15.50;56.20;;;;;;4937748;28;20042;-82
2022/04/16 13:02:29;;;;;;;4.93;1.50;;;15.60;56.60;;;;;;4935429;29;20066;-82
2022/04/16 13:04:55;;;;;;;4.07;1.35;;;15.60;55.90;;;;;;4949842;28;20042;-83